Time;durP1;ratioP1;P1;durP2;ratioP2;P2;SDS_P1;SDS_P2;PMS_P1;PMS_P2;Temp;Humidity;BMP_temperature;BMP_pressure;BME280_temperature;BME280_humidity;BME280_pressure;Samples;Min_cycle;Max_cycle;Signal;HPM_P1;HPM_P2
2022/11/02 00:00:49;;;;;;;40.12;17.75;;;;;;;5.86;70.40;100422.86;1736182;81;21118;-60
2022/11/02 00:03:19;;;;;;;40.33;17.42;;;;;;;5.86;70.55;100413.85;1738933;81;21062;-61
2022/11/02 00:05:49;;;;;;;39.45;16.65;;;;;;;5.86;70.68;100410.63;1761474;81;21493;-60
2022/11/02 00:08:18;;;;;;;36.03;16.10;;;;;;;5.87;70.80;100404.68;1763274;81;21008;-61
2022/11/02 00:10:47;;;;;;;37.80;16.70;;;;;;;5.90;70.87;100406.59;1765392;81;21059;-60
2022/11/02 00:13:20;;;;;;;34.95;16.15;;;;;;;5.91;70.97;100402.84;1684512;85;21087;-64
2022/11/02 00:15:49;;;;;;;39.45;17.02;;;;;;;5.92;71.07;100396.91;1684140;85;21059;-59
2022/11/02 00:18:19;;;;;;;37.40;17.15;;;;;;;5.91;71.16;100396.56;1684216;85;21459;-61
2022/11/02 00:20:48;;;;;;;39.88;17.52;;;;;;;5.89;71.25;100394.01;1684224;85;21493;-61
2022/11/02 00:23:17;;;;;;;37.20;17.07;;;;;;;5.86;71.35;100392.95;1671814;85;21556;-60
2022/11/02 00:25:48;;;;;;;37.35;16.23;;;;;;;5.86;71.51;100389.38;1682029;85;21063;-61
2022/11/02 00:28:18;;;;;;;36.40;16.73;;;;;;;5.84;71.58;100387.30;1673242;85;21048;-60
2022/11/02 00:30:47;;;;;;;37.45;16.45;;;;;;;5.81;71.63;100383.05;1697777;82;21038;-61
2022/11/02 00:33:16;;;;;;;41.58;17.37;;;;;;;5.81;71.75;100389.85;1752435;81;21009;-60
2022/11/02 00:35:45;;;;;;;37.60;17.98;;;;;;;5.81;71.88;100376.26;1756562;81;21033;-59
2022/11/02 00:38:14;;;;;;;40.20;17.42;;;;;;;5.79;71.97;100376.08;1758703;81;21021;-59
2022/11/02 00:40:43;;;;;;;38.28;17.82;;;;;;;5.79;72.12;100378.30;1755950;81;21456;-61
2022/11/02 00:43:12;;;;;;;35.80;16.85;;;;;;;5.78;72.17;100370.30;1758393;81;21008;-60
2022/11/02 00:45:43;;;;;;;38.05;15.98;;;;;;;5.76;72.22;100376.42;1758743;81;21050;-62
2022/11/02 00:48:13;;;;;;;36.25;15.93;;;;;;;5.75;72.25;100382.36;1761882;81;21390;-61
2022/11/02 00:50:43;;;;;;;38.15;16.48;;;;;;;5.76;72.30;100384.58;1761124;81;21008;-59
2022/11/02 00:53:12;;;;;;;35.55;16.12;;;;;;;5.80;72.29;100377.28;1754615;81;20982;-60
2022/11/02 00:55:43;;;;;;;36.38;16.02;;;;;;;5.79;72.24;100378.30;1755840;81;21014;-60
2022/11/02 00:58:14;;;;;;;31.77;15.55;;;;;;;5.78;72.30;100372.52;1757013;81;21135;-64
2022/11/02 01:00:44;;;;;;;38.13;16.30;;;;;;;5.78;72.33;100373.88;1766197;81;21606;-61
2022/11/02 01:03:13;;;;;;;37.03;15.90;;;;;;;5.78;72.32;100365.72;1760118;81;21051;-61
2022/11/02 01:05:43;;;;;;;34.35;16.05;;;;;;;5.77;72.28;100368.09;1758089;81;21008;-61
2022/11/02 01:08:12;;;;;;;32.67;15.68;;;;;;;5.74;72.22;100365.71;1758470;81;21041;-63
2022/11/02 01:10:42;;;;;;;31.33;14.03;;;;;;;5.70;72.30;100369.78;1764939;81;21003;-61
2022/11/02 01:13:13;;;;;;;31.55;14.87;;;;;;;5.69;72.37;100373.52;1751948;81;20998;-61
2022/11/02 01:15:44;;;;;;;36.80;15.00;;;;;;;5.66;72.43;100369.27;1756084;81;20986;-60
2022/11/02 01:18:13;;;;;;;31.82;14.87;;;;;;;5.67;72.50;100378.27;1757685;81;20987;-60
2022/11/02 01:20:42;;;;;;;30.82;14.13;;;;;;;5.66;72.52;100369.77;1767230;80;21042;-61
2022/11/02 01:23:11;;;;;;;37.80;15.03;;;;;;;5.63;72.56;100373.67;1777823;81;21483;-60
2022/11/02 01:25:45;;;;;;;35.68;14.90;;;;;;;5.63;72.60;100361.95;1732791;81;21074;-62
2022/11/02 01:28:15;;;;;;;33.55;14.38;;;;;;;5.60;72.67;100364.50;1753289;81;21026;-60
2022/11/02 01:30:47;;;;;;;32.17;13.75;;;;;;;5.58;72.68;100361.09;1732479;81;21050;-60
2022/11/02 01:33:19;;;;;;;32.15;13.83;;;;;;;5.56;72.70;100358.20;1752261;81;21007;-64
2022/11/02 01:35:48;;;;;;;34.13;14.28;;;;;;;5.58;72.69;100358.88;1731617;81;21039;-61
2022/11/02 01:38:18;;;;;;;32.13;14.33;;;;;;;5.55;72.69;100361.94;1754459;81;21541;-60
2022/11/02 01:40:47;;;;;;;34.65;13.75;;;;;;;5.47;72.79;100358.69;1755109;81;21487;-60
2022/11/02 01:43:29;;;;;;;29.42;13.72;;;;;;;5.41;72.93;100350.70;1734436;81;21050;-60
2022/11/02 01:46:16;;;;;;;29.37;13.72;;;;;;;5.43;73.04;100357.33;1734785;81;21435;-59
2022/11/02 01:49:00;;;;;;;30.57;13.80;;;;;;;5.44;73.05;100354.09;1758764;81;21605;-60
2022/11/02 01:51:33;;;;;;;35.85;13.70;;;;;;;5.39;73.06;100344.58;1713872;83;21443;-61
2022/11/02 01:54:07;;;;;;;29.60;12.50;;;;;;;5.37;73.13;100345.25;1770402;81;20986;-61
2022/11/02 01:56:36;;;;;;;25.23;12.43;;;;;;;5.38;73.10;100346.95;1772106;81;21011;-60
2022/11/02 01:59:12;;;;;;;29.77;13.13;;;;;;;5.34;73.12;100340.16;1758430;81;21018;-60
2022/11/02 02:01:41;;;;;;;32.23;13.40;;;;;;;5.29;73.22;100342.52;1760649;81;20983;-60
2022/11/02 02:04:11;;;;;;;32.28;13.65;;;;;;;5.30;73.34;100341.50;1777900;80;21055;-59
2022/11/02 02:06:41;;;;;;;29.92;13.68;;;;;;;5.31;73.38;100345.91;1763905;81;21407;-61
2022/11/02 02:09:10;;;;;;;31.37;13.68;;;;;;;5.29;73.40;100349.30;1763444;80;21065;-59
2022/11/02 02:11:39;;;;;;;27.62;13.00;;;;;;;5.27;73.41;100347.77;1736319;80;20986;-61
2022/11/02 02:14:15;;;;;;;29.85;13.20;;;;;;;5.23;73.40;100346.39;1763445;80;21010;-60
2022/11/02 02:17:20;;;;;;;31.23;13.32;;;;;;;5.19;73.41;100339.05;1773630;80;21026;-60
2022/11/02 02:20:05;;;;;;;31.52;13.70;;;;;;;5.18;73.52;100339.22;1771763;80;21033;-63
2022/11/02 02:23:13;;;;;;;32.65;14.95;;;;;;;5.17;73.68;100334.30;1774947;80;21434;-62
2022/11/02 02:26:14;;;;;;;36.60;15.45;;;;;;;5.18;73.70;100325.64;1754174;80;21026;-60
2022/11/02 02:28:57;;;;;;;40.73;16.87;;;;;;;5.16;73.76;100329.02;1780601;80;21466;-62
2022/11/02 02:31:52;;;;;;;43.13;15.90;;;;;;;5.15;73.80;100326.81;1767705;80;21081;-61
2022/11/02 02:34:37;;;;;;;38.28;16.32;;;;;;;5.13;73.83;100323.41;1780836;80;20965;-62
2022/11/02 02:37:14;;;;;;;40.03;17.07;;;;;;;5.15;73.89;100328.17;1781853;80;21104;-60
2022/11/02 02:39:58;;;;;;;;;;;;;;;5.17;73.90;100316.64;1767140;80;20990;-59
2022/11/02 02:42:34;;;;;;;38.48;16.48;;;;;;;5.17;73.83;100320.71;1757727;80;20143;-60
2022/11/02 02:45:48;;;;;;;39.80;16.70;;;;;;;5.16;73.89;100316.30;1778158;80;21421;-60
2022/11/02 02:48:23;;;;;;;43.98;16.93;;;;;;;5.15;73.84;100310.52;1784520;80;21023;-61
2022/11/02 02:51:03;;;;;;;39.18;16.67;;;;;;;5.12;73.82;100306.78;1775227;80;21015;-61
2022/11/02 02:53:48;;;;;;;38.02;16.90;;;;;;;5.11;73.89;100307.80;1763770;80;21496;-59
2022/11/02 02:56:20;;;;;;;40.65;15.32;;;;;;;5.10;73.92;100306.95;1774922;80;21030;-60
2022/11/02 02:58:55;;;;;;;38.02;16.40;;;;;;;5.14;73.91;100303.89;1762166;80;21449;-60
2022/11/02 03:01:25;;;;;;;42.43;17.37;;;;;;;5.12;73.86;100305.42;1779472;80;21616;-59
2022/11/02 03:03:56;;;;;;;40.38;16.77;;;;;;;5.08;73.91;100303.55;1774822;80;21484;-61
2022/11/02 03:06:30;;;;;;;39.35;17.25;;;;;;;5.08;74.01;100308.97;1760810;80;21051;-61
2022/11/02 03:09:09;;;;;;;41.40;17.57;;;;;;;5.07;74.03;100306.42;1752567;81;21055;-60
2022/11/02 03:11:46;;;;;;;40.40;16.62;;;;;;;5.05;74.02;100308.45;1763406;81;21056;-61
2022/11/02 03:14:22;;;;;;;;;;;;;;;5.00;74.01;100317.09;1749408;82;21048;-60
2022/11/02 03:17:15;;;;;;;38.75;15.75;;;;;;;4.97;74.08;100327.42;1763197;81;20201;-61
2022/11/02 03:20:25;;;;;;;39.60;17.07;;;;;;;4.92;74.20;100312.14;1733623;81;21033;-60
2022/11/02 03:23:15;;;;;;;42.10;17.35;;;;;;;4.92;74.37;100318.92;1755173;81;21043;-60
2022/11/02 03:26:02;;;;;;;34.98;15.68;;;;;;;4.89;74.47;100321.97;1747775;81;21023;-62
2022/11/02 03:28:46;;;;;;;34.23;15.28;;;;;;;4.84;74.59;100314.81;1758893;81;21023;-67
2022/11/02 03:31:33;;;;;;;36.15;15.38;;;;;;;4.82;74.74;100319.05;1733197;81;21088;-61
2022/11/02 03:34:09;;;;;;;;;;;;;;;4.83;74.83;100317.19;1672934;83;21055;-63
2022/11/02 03:36:49;;;;;;;33.02;13.30;;;;;;;4.83;74.89;100313.97;1679367;84;20250;-61
2022/11/02 03:39:23;;;;;;;32.25;13.88;;;;;;;4.83;74.95;100315.83;1760309;81;20995;-60
2022/11/02 03:41:53;;;;;;;31.77;13.60;;;;;;;4.82;75.02;100311.41;1760502;81;21015;-61
2022/11/02 03:44:24;;;;;;;34.65;15.05;;;;;;;4.77;75.08;100308.68;1712557;82;21091;-59
2022/11/02 03:46:58;;;;;;;35.70;14.68;;;;;;;4.73;75.16;100308.66;1759894;81;21072;-66
2022/11/02 03:49:29;;;;;;;34.03;14.85;;;;;;;4.68;75.21;100312.38;1727205;81;21023;-60
2022/11/02 03:52:02;;;;;;;33.90;15.18;;;;;;;4.66;75.37;100304.90;1725855;82;20994;-60
2022/11/02 03:55:04;;;;;;;30.00;13.32;;;;;;;4.66;75.41;100306.77;1726125;83;21470;-60
2022/11/02 03:57:49;;;;;;;31.30;12.95;;;;;;;4.63;75.33;100307.94;1726075;83;21042;-61
2022/11/02 04:00:23;;;;;;;32.85;13.78;;;;;;;4.61;75.43;100303.69;1726961;81;20995;-61
2022/11/02 04:02:57;;;;;;;31.02;14.15;;;;;;;4.60;75.63;100297.41;1725483;81;21010;-60
2022/11/02 04:05:32;;;;;;;32.28;14.53;;;;;;;4.61;75.66;100295.55;1739472;81;21452;-61
2022/11/02 04:08:23;;;;;;;30.37;13.00;;;;;;;4.60;75.76;100298.77;1747727;81;21036;-59
2022/11/02 04:16:33;;;;;;;30.20;12.43;;;;;;;4.61;76.02;100299.61;1677016;84;21024;-60
2022/11/02 04:27:34;;;;;;;43.13;19.40;;;;;;;4.67;76.28;100286.25;1725635;83;21103;-61
2022/11/02 04:30:05;;;;;;;45.92;19.98;;;;;;;4.71;76.27;100286.27;1759537;81;21012;-61
2022/11/02 04:35:37;;;;;;;50.50;21.10;;;;;;;4.81;76.12;100283.93;1762117;81;21540;-62
2022/11/02 04:41:40;;;;;;;49.98;21.48;;;;;;;4.90;75.99;100291.09;1715287;83;21492;-64
2022/11/02 04:43:25;;;;;;;48.50;21.95;;;;;;;4.94;75.90;100282.96;1745185;81;21008;-61
2022/11/02 04:45:57;;;;;;;50.65;22.13;;;;;;;4.97;75.81;100279.41;1749032;81;21465;-61
2022/11/02 04:48:26;;;;;;;46.80;22.45;;;;;;;5.01;75.75;100269.91;1750242;81;21012;-60
2022/11/02 04:50:57;;;;;;;40.17;19.30;;;;;;;5.05;75.67;100262.30;1726575;81;21528;-60
2022/11/02 04:53:26;;;;;;;45.15;17.62;;;;;;;5.05;75.59;100264.50;1726369;82;21104;-60
2022/11/02 04:55:55;;;;;;;39.80;17.65;;;;;;;5.06;75.47;100261.27;1751445;81;21448;-60
2022/11/02 04:58:25;;;;;;;37.70;18.23;;;;;;;5.08;75.37;100257.37;1726270;82;21030;-68
2022/11/02 05:00:54;;;;;;;35.52;17.30;;;;;;;5.07;75.30;100252.96;1766776;81;20992;-59
2022/11/02 05:03:23;;;;;;;40.67;17.77;;;;;;;5.06;75.34;100261.27;1766329;81;21035;-61
2022/11/02 05:05:56;;;;;;;39.20;17.75;;;;;;;5.09;75.32;100258.23;1754636;81;21024;-60
2022/11/02 05:08:25;;;;;;;36.77;18.40;;;;;;;5.12;75.14;100259.25;1738810;82;21022;-60
2022/11/02 05:10:57;;;;;;;36.98;18.52;;;;;;;5.12;74.97;100260.61;1772341;81;21085;-61
2022/11/02 05:13:27;;;;;;;38.42;17.98;;;;;;;5.10;74.83;100256.70;1758670;81;21053;-61
2022/11/02 05:15:58;;;;;;;35.52;16.85;;;;;;;5.09;74.76;100251.44;1772449;81;21062;-62
2022/11/02 05:18:29;;;;;;;35.50;17.30;;;;;;;5.08;74.76;100240.23;1742254;81;21007;-61
2022/11/02 05:21:00;;;;;;;44.18;18.30;;;;;;;5.12;74.72;100244.31;1723812;81;21047;-62
2022/11/02 05:23:30;;;;;;;39.65;19.40;;;;;;;5.12;74.75;100244.83;1751467;81;21050;-61
2022/11/02 05:26:08;;;;;;;38.40;18.57;;;;;;;5.16;74.72;100248.40;1754913;80;21114;-62
2022/11/02 05:28:37;;;;;;;36.70;19.35;;;;;;;5.15;74.66;100243.13;1700166;84;21048;-60
2022/11/02 05:31:07;;;;;;;37.85;18.27;;;;;;;5.13;74.74;100238.38;1756829;81;21015;-62
2022/11/02 05:33:38;;;;;;;35.50;18.00;;;;;;;5.10;74.82;100243.63;1739314;81;20994;-61
2022/11/02 05:36:11;;;;;;;34.63;16.82;;;;;;;5.10;74.94;100244.48;1761086;81;21035;-61
2022/11/02 05:38:42;;;;;;;34.05;16.40;;;;;;;5.13;75.00;100246.02;1722695;81;21478;-61
2022/11/02 05:41:13;;;;;;;36.65;17.52;;;;;;;5.15;74.96;100243.13;1739444;81;20998;-62
2022/11/02 05:43:43;;;;;;;32.98;17.00;;;;;;;5.13;75.00;100245.16;1736572;81;21039;-60
2022/11/02 05:46:13;;;;;;;36.77;18.32;;;;;;;5.13;75.08;100246.02;1762912;81;21038;-60
2022/11/02 05:48:44;;;;;;;40.43;20.27;;;;;;;5.13;75.13;100250.59;1766559;81;22247;-63
2022/11/02 05:51:13;;;;;;;39.75;21.73;;;;;;;5.13;75.21;100259.59;1748938;80;21067;-60
2022/11/02 05:53:44;;;;;;;40.65;18.82;;;;;;;5.14;75.17;100253.66;1755401;81;21058;-61
2022/11/02 05:56:14;;;;;;;39.73;18.98;;;;;;;5.17;75.13;100254.68;1757937;81;21006;-60
2022/11/02 05:58:46;;;;;;;35.92;16.62;;;;;;;5.18;75.05;100251.80;1703147;82;20996;-60
2022/11/02 06:01:16;;;;;;;38.73;18.27;;;;;;;5.19;75.04;100249.93;1744635;81;20986;-60
2022/11/02 06:03:45;;;;;;;36.00;16.62;;;;;;;5.21;75.02;100256.08;1759215;81;21033;-60
2022/11/02 06:06:16;;;;;;;37.75;18.30;;;;;;;5.22;74.88;100257.78;1750709;81;21487;-63
2022/11/02 06:08:46;;;;;;;42.88;18.92;;;;;;;5.25;74.76;100258.30;1764556;81;21050;-62
2022/11/02 06:11:14;;;;;;;39.38;17.95;;;;;;;5.30;74.58;100262.72;1737545;81;21027;-61
2022/11/02 06:13:44;;;;;;;41.33;17.92;;;;;;;5.35;74.43;100268.50;1746048;81;20955;-60
2022/11/02 06:16:14;;;;;;;45.23;19.52;;;;;;;5.43;74.26;100258.66;1756482;81;21011;-59
2022/11/02 06:18:46;;;;;;;48.63;18.87;;;;;;;5.49;74.15;100266.14;1755293;80;21066;-61
2022/11/02 06:21:16;;;;;;;41.15;17.48;;;;;;;5.54;74.02;100270.55;1773032;81;21030;-61
2022/11/02 06:23:49;;;;;;;43.25;19.62;;;;;;;5.57;73.88;100269.71;1739535;80;21455;-61
2022/11/02 06:26:19;;;;;;;44.05;19.37;;;;;;;5.63;73.73;100269.03;1774401;80;21031;-62
2022/11/02 06:28:48;;;;;;;41.90;19.27;;;;;;;5.68;73.53;100267.16;1769155;81;21062;-59
2022/11/02 06:31:18;;;;;;;44.67;19.02;;;;;;;5.70;73.43;100264.62;1766528;81;21078;-60
2022/11/02 06:33:47;;;;;;;46.35;18.48;;;;;;;5.77;73.25;100262.07;1764375;80;21086;-61
2022/11/02 06:36:17;;;;;;;59.93;33.48;;;;;;;5.84;73.06;100259.01;1751118;81;21045;-62
2022/11/02 06:38:47;;;;;;;50.75;22.40;;;;;;;5.93;72.83;100260.77;1770715;81;21430;-60
2022/11/02 06:41:16;;;;;;;42.45;19.98;;;;;;;5.97;72.49;100258.05;1748444;81;20995;-64
2022/11/02 06:43:45;;;;;;;34.55;15.95;;;;;;;6.03;72.21;100255.15;1773836;81;21035;-60
2022/11/02 06:46:15;;;;;;;34.70;15.05;;;;;;;6.09;71.40;100259.90;1744949;80;21059;-62
2022/11/02 06:48:47;;;;;;;33.42;15.60;;;;;;;6.13;70.62;100263.97;1713139;83;21114;-61
2022/11/02 06:51:17;;;;;;;37.67;14.95;;;;;;;6.19;70.11;100267.36;1763222;80;21015;-63
2022/11/02 06:53:47;;;;;;;32.15;14.78;;;;;;;6.29;69.58;100269.89;1763399;81;21006;-60
2022/11/02 06:56:16;;;;;;;36.58;15.43;;;;;;;6.36;69.09;100266.81;1746906;80;21034;-61
2022/11/02 06:58:47;;;;;;;33.38;14.18;;;;;;;6.43;68.53;100269.17;1747403;81;20991;-61
2022/11/02 07:01:17;;;;;;;34.13;15.68;;;;;;;6.52;68.11;100269.52;1752348;81;21430;-61
2022/11/02 07:03:46;;;;;;;33.85;14.78;;;;;;;6.61;67.54;100275.28;1753172;81;21018;-61
2022/11/02 07:06:16;;;;;;;30.80;14.60;;;;;;;6.68;67.01;100265.38;1771444;80;21069;-62
2022/11/02 07:08:44;;;;;;;37.98;15.72;;;;;;;6.79;66.42;100276.91;1749254;81;21006;-58
2022/11/02 07:11:15;;;;;;;36.00;15.95;;;;;;;6.86;65.89;100274.67;1761191;81;21462;-58
2022/11/02 07:13:46;;;;;;;36.95;16.15;;;;;;;6.96;65.36;100279.91;1760822;81;21506;-58
2022/11/02 07:16:15;;;;;;;38.78;15.80;;;;;;;7.04;64.88;100277.14;1743186;81;21018;-57
2022/11/02 07:18:45;;;;;;;35.05;16.80;;;;;;;7.12;64.54;100281.70;1758645;81;21457;-57
2022/11/02 07:21:36;;;;;;;36.85;15.88;;;;;;;7.20;64.03;100274.87;1759101;81;21100;-57
2022/11/02 07:24:06;;;;;;;36.88;16.48;;;;;;;7.28;63.72;100279.76;1764124;81;21464;-58
2022/11/02 07:26:35;;;;;;;40.48;17.15;;;;;;;7.39;63.36;100273.05;1755234;81;21034;-58
2022/11/02 07:29:04;;;;;;;42.90;17.17;;;;;;;7.52;63.16;100273.81;1757168;81;21104;-59
2022/11/02 07:31:34;;;;;;;36.58;17.77;;;;;;;7.76;62.83;100272.27;1755131;81;21021;-57
2022/11/02 07:34:06;;;;;;;45.85;18.98;;;;;;;8.09;62.12;100276.95;1765335;81;20979;-57
2022/11/02 07:36:40;;;;;;;42.55;18.67;;;;;;;8.44;61.14;100265.88;1726502;81;21142;-58
2022/11/02 07:39:11;;;;;;;45.10;18.10;;;;;;;8.82;60.57;100275.38;1751552;81;21323;-58
2022/11/02 07:41:41;;;;;;;41.73;18.35;;;;;;;9.24;59.51;100261.02;1734855;81;21426;-58
2022/11/02 07:44:11;;;;;;;41.53;17.55;;;;;;;9.63;58.60;100256.48;1767554;81;21481;-58
2022/11/02 07:46:49;;;;;;;39.85;17.77;;;;;;;10.02;57.47;100253.30;1747141;81;21034;-58
2022/11/02 07:49:20;;;;;;;40.63;17.27;;;;;;;10.43;56.32;100243.03;1756324;81;21045;-58
2022/11/02 07:51:51;;;;;;;39.90;16.20;;;;;;;10.80;54.77;100245.36;1712928;82;21014;-58
2022/11/02 07:54:24;;;;;;;36.77;15.78;;;;;;;11.16;54.05;100248.92;1752331;81;21065;-58
2022/11/02 07:56:56;;;;;;;36.00;16.07;;;;;;;11.46;52.95;100243.95;1728239;81;21288;-58
2022/11/02 07:59:26;;;;;;;36.15;16.15;;;;;;;11.69;51.87;100238.92;1751936;81;20994;-58
2022/11/02 08:01:56;;;;;;;37.50;16.23;;;;;;;11.85;51.23;100239.95;1749090;81;21014;-58
2022/11/02 08:04:25;;;;;;;32.70;15.48;;;;;;;12.00;50.73;100234.26;1763668;81;21153;-58
2022/11/02 08:06:58;;;;;;;30.08;14.87;;;;;;;12.09;50.24;100239.86;1755695;81;21033;-58
2022/11/02 08:09:28;;;;;;;36.88;16.57;;;;;;;12.10;49.86;100239.33;1756558;81;21067;-58
2022/11/02 08:11:58;;;;;;;33.15;15.48;;;;;;;12.12;49.54;100244.92;1751494;81;21006;-58
2022/11/02 08:14:28;;;;;;;32.33;16.52;;;;;;;12.10;49.58;100245.66;1748942;81;21036;-58
2022/11/02 08:16:59;;;;;;;35.45;15.30;;;;;;;12.15;49.38;100248.62;1769531;81;21489;-57
2022/11/02 08:19:30;;;;;;;32.58;16.32;;;;;;;12.19;49.25;100244.92;1757850;81;21546;-58
2022/11/02 08:22:00;;;;;;;36.40;17.30;;;;;;;12.20;49.02;100237.00;1751003;81;21484;-58
2022/11/02 08:24:30;;;;;;;37.93;16.50;;;;;;;12.17;49.00;100245.66;1721690;82;21015;-58
2022/11/02 08:27:00;;;;;;;33.88;17.02;;;;;;;12.12;49.21;100244.92;1726643;82;21030;-60
2022/11/02 08:29:29;;;;;;;35.35;17.60;;;;;;;12.09;49.00;100243.98;1719810;82;21035;-58
2022/11/02 08:31:59;;;;;;;32.05;16.93;;;;;;;12.05;49.01;100250.95;1690622;83;21069;-58
2022/11/02 08:34:29;;;;;;;37.28;17.67;;;;;;;11.97;48.97;100245.14;1709117;82;21007;-58
2022/11/02 08:36:59;;;;;;;41.85;18.05;;;;;;;11.93;48.82;100252.63;1729756;82;20999;-57
2022/11/02 08:39:29;;;;;;;38.98;17.90;;;;;;;11.88;48.87;100249.67;1734346;82;21459;-58
2022/11/02 08:42:00;;;;;;;33.67;17.48;;;;;;;11.84;49.09;100248.41;1734344;82;21050;-59
2022/11/02 08:44:30;;;;;;;38.78;19.05;;;;;;;11.83;49.02;100245.34;1723692;82;21097;-58
2022/11/02 08:47:02;;;;;;;36.08;17.60;;;;;;;11.78;48.78;100241.84;1709872;82;21095;-59
2022/11/02 08:49:55;;;;;;;34.48;16.97;;;;;;;11.69;49.12;100238.92;1686040;83;21117;-59
2022/11/02 08:52:56;;;;;;;34.35;16.17;;;;;;;11.62;48.94;100229.31;1723651;82;21042;-68
2022/11/02 08:55:45;;;;;;;32.75;16.17;;;;;;;11.56;49.39;100234.78;1710540;82;21077;-59
2022/11/02 08:58:19;;;;;;;34.15;16.75;;;;;;;11.54;49.46;100235.52;1733690;82;21023;-58
2022/11/02 09:01:04;;;;;;;35.48;15.23;;;;;;;11.51;49.60;100233.19;1736659;82;21010;-62
2022/11/02 09:03:34;;;;;;;32.63;14.18;;;;;;;11.48;49.39;100219.89;1730525;82;21051;-60
2022/11/02 09:06:03;;;;;;;29.50;14.98;;;;;;;11.43;49.60;100224.63;1730770;82;21452;-60
2022/11/02 09:08:41;;;;;;;32.40;14.35;;;;;;;11.42;49.63;100228.42;1726414;82;21027;-60
2022/11/02 09:11:49;;;;;;;27.35;13.20;;;;;;;11.41;49.64;100223.99;1723146;82;21034;-60
2022/11/02 09:15:12;;;;;;;27.02;13.60;;;;;;;11.42;49.60;100218.83;1723271;82;21428;-61
2022/11/02 09:17:57;;;;;;;29.05;13.80;;;;;;;11.43;49.61;100216.40;1721376;82;21062;-61
2022/11/02 09:20:40;;;;;;;24.52;13.55;;;;;;;11.43;49.50;100219.14;1720747;82;21031;-61
2022/11/02 09:23:09;;;;;;;29.82;13.78;;;;;;;11.43;49.63;100219.98;1749200;81;21029;-60
2022/11/02 09:25:40;;;;;;;25.00;13.10;;;;;;;11.44;49.58;100209.86;1723061;81;21023;-61
2022/11/02 09:28:09;;;;;;;28.90;13.93;;;;;;;11.42;49.62;100216.92;1727181;81;21094;-61
2022/11/02 09:30:42;;;;;;;30.30;13.70;;;;;;;11.43;49.68;100218.61;1729276;81;21552;-63
2022/11/02 09:33:12;;;;;;;29.55;14.58;;;;;;;11.46;49.79;100216.52;1727123;81;21018;-61
2022/11/02 09:35:56;;;;;;;30.12;14.20;;;;;;;11.47;49.82;100213.56;1743189;81;21038;-60
2022/11/02 09:38:46;;;;;;;29.60;13.90;;;;;;;11.47;49.77;100214.08;1722126;81;21010;-60
2022/11/02 09:41:38;;;;;;;29.07;13.60;;;;;;;11.46;49.78;100212.39;1745819;81;21110;-63
2022/11/02 09:44:28;;;;;;;28.27;14.43;;;;;;;11.47;50.27;100204.48;1714785;83;21050;-60
2022/11/02 09:47:01;;;;;;;28.65;14.13;;;;;;;11.51;50.09;100207.13;1679914;84;21052;-60
2022/11/02 09:49:34;;;;;;;29.42;14.20;;;;;;;11.52;49.85;100200.59;1655658;85;21059;-61
2022/11/02 09:52:30;;;;;;;28.90;13.40;;;;;;;11.54;49.90;100207.55;1713132;83;21082;-59
2022/11/02 09:55:02;;;;;;;31.95;14.53;;;;;;;11.56;49.86;100201.33;1744865;82;21019;-60
2022/11/02 09:57:32;;;;;;;32.65;14.55;;;;;;;11.60;50.07;100201.23;1736650;81;21045;-60
2022/11/02 10:00:11;;;;;;;29.42;14.25;;;;;;;11.61;50.06;100191.94;1762109;80;21050;-61
2022/11/02 10:03:51;;;;;;;28.15;14.10;;;;;;;11.64;49.93;100196.17;1770503;80;21050;-60
2022/11/02 10:06:37;;;;;;;31.17;15.50;;;;;;;11.64;50.18;100198.91;1770341;80;21029;-61
2022/11/02 10:09:34;;;;;;;30.45;14.80;;;;;;;11.65;50.26;100201.45;1763034;81;21034;-62
2022/11/02 10:12:46;;;;;;;30.55;15.10;;;;;;;11.65;50.16;100195.95;1751234;81;21216;-61
2022/11/02 10:15:47;;;;;;;36.15;15.83;;;;;;;11.68;50.32;100194.69;1773773;80;21049;-58
2022/11/02 10:18:20;;;;;;;31.75;14.05;;;;;;;11.71;50.27;100195.67;1769890;80;21038;-59
2022/11/02 10:20:58;;;;;;;30.62;15.15;;;;;;;11.71;50.40;100195.16;1795403;80;21014;-60
2022/11/02 10:23:49;;;;;;;30.27;15.25;;;;;;;11.74;50.19;100202.97;1752266;80;21086;-60
2022/11/02 10:26:42;;;;;;;30.30;15.58;;;;;;;11.75;50.28;100195.05;1752371;80;21086;-62
2022/11/02 10:29:21;;;;;;;30.27;16.20;;;;;;;11.78;50.64;100191.59;1767058;81;21057;-62
2022/11/02 10:31:51;;;;;;;31.55;16.00;;;;;;;11.78;50.91;100203.95;1753364;81;21063;-62
2022/11/02 10:34:26;;;;;;;32.88;16.17;;;;;;;11.77;51.09;100203.07;1763202;80;20994;-63
2022/11/02 10:37:03;;;;;;;31.75;16.32;;;;;;;11.75;51.30;100199.16;1730451;81;21030;-63
2022/11/02 10:39:44;;;;;;;35.75;16.82;;;;;;;11.78;51.42;100195.71;1792162;80;21014;-62
2022/11/02 10:42:41;;;;;;;31.45;15.65;;;;;;;11.79;51.47;100195.50;1768791;80;21057;-64
2022/11/02 10:45:43;;;;;;;30.27;16.20;;;;;;;11.78;51.48;100191.06;1756598;80;21054;-62
2022/11/02 10:48:36;;;;;;;34.03;15.85;;;;;;;11.73;51.63;100199.91;1786229;80;21057;-62
2022/11/02 10:51:11;;;;;;;33.63;15.88;;;;;;;11.68;51.49;100198.28;1755359;80;21526;-63
2022/11/02 10:53:44;;;;;;;29.55;15.30;;;;;;;11.65;51.53;100194.59;1741644;81;21036;-63
2022/11/02 10:56:18;;;;;;;30.55;15.23;;;;;;;11.64;51.57;100198.39;1706964;82;21030;-62
2022/11/02 10:59:03;;;;;;;32.23;15.28;;;;;;;11.64;51.41;100200.28;1707502;82;21057;-63
2022/11/02 11:01:32;;;;;;;33.65;15.03;;;;;;;11.64;51.46;100194.80;1736512;82;21035;-62
2022/11/02 11:04:03;;;;;;;29.75;14.93;;;;;;;11.63;51.34;100201.34;1723916;81;20995;-64
2022/11/02 11:06:42;;;;;;;30.32;14.28;;;;;;;11.62;51.22;100203.77;1714981;83;21432;-62
2022/11/02 11:09:38;;;;;;;28.10;14.10;;;;;;;11.59;50.96;100197.33;1718946;81;21053;-62
2022/11/02 11:12:21;;;;;;;26.85;14.33;;;;;;;11.55;51.09;100195.53;1732928;82;21058;-62
2022/11/02 11:14:56;;;;;;;30.40;14.78;;;;;;;11.52;51.10;100198.69;1700826;84;21050;-61
2022/11/02 11:17:36;;;;;;;34.60;14.28;;;;;;;11.50;51.21;100196.68;1732356;82;21466;-61
2022/11/02 11:20:27;;;;;;;26.02;14.03;;;;;;;11.50;51.41;100201.32;1731327;82;21065;-65
2022/11/02 11:23:19;;;;;;;30.37;15.03;;;;;;;11.49;51.56;100194.99;1716684;83;21035;-62
2022/11/02 11:25:58;;;;;;;27.30;14.83;;;;;;;11.53;51.68;100198.16;1735248;82;21074;-61
2022/11/02 11:28:33;;;;;;;25.70;13.72;;;;;;;11.56;51.57;100195.00;1691968;83;21028;-63
2022/11/02 11:31:14;;;;;;;25.08;13.10;;;;;;;11.58;51.37;100191.52;1713153;82;21022;-64
2022/11/02 11:33:56;;;;;;;30.15;14.87;;;;;;;11.59;51.29;100190.47;1671447;83;21042;-62
2022/11/02 11:36:29;;;;;;;26.90;13.58;;;;;;;11.61;51.16;100186.98;1734009;82;21002;-60
2022/11/02 11:39:07;;;;;;;28.38;13.32;;;;;;;11.62;50.97;100188.14;1716894;83;21014;-62
2022/11/02 11:41:39;;;;;;;28.15;13.62;;;;;;;11.64;50.88;100195.64;1640749;85;21442;-63
2022/11/02 11:44:12;;;;;;;28.20;13.08;;;;;;;11.65;50.81;100184.98;1732523;82;21055;-61
2022/11/02 11:46:49;;;;;;;28.83;13.68;;;;;;;11.66;50.76;100184.45;1728401;82;21082;-61
2022/11/02 11:49:34;;;;;;;28.25;13.72;;;;;;;11.66;50.78;100178.44;1730827;82;21031;-64
2022/11/02 11:52:05;;;;;;;29.90;13.58;;;;;;;11.68;50.78;100184.56;1703981;82;22101;-62
2022/11/02 11:54:36;;;;;;;30.80;14.47;;;;;;;11.69;50.75;100181.29;1727035;81;21483;-63
2022/11/02 11:57:30;;;;;;;25.77;13.40;;;;;;;11.71;50.97;100182.80;1728946;82;21059;-63
2022/11/02 12:00:03;;;;;;;24.63;13.03;;;;;;;11.74;50.96;100187.87;1717062;81;21043;-64
2022/11/02 12:02:36;;;;;;;33.78;13.50;;;;;;;11.77;50.88;100188.50;1743819;81;21480;-63
2022/11/02 12:05:15;;;;;;;26.45;12.75;;;;;;;11.78;50.85;100188.33;1736389;81;21074;-62
2022/11/02 12:08:12;;;;;;;29.00;14.20;;;;;;;11.79;50.99;100188.64;1737078;81;21043;-63
2022/11/02 12:10:46;;;;;;;25.15;13.60;;;;;;;11.82;51.02;100195.08;1748557;81;21054;-63
2022/11/02 12:13:52;;;;;;;29.42;14.78;;;;;;;11.85;51.05;100193.81;1746892;81;21011;-64